sensor_id;sensor_type;location;lat;lon;timestamp;P1;durP1;ratioP1;P2;durP2;ratioP2
12780;SDS011;6454;43.304;24.344;2024-01-06T00:00:50;14.77;;;8.50;;
12780;SDS011;6454;43.304;24.344;2024-01-06T00:03:15;17.60;;;9.02;;
12780;SDS011;6454;43.304;24.344;2024-01-06T00:05:40;16.63;;;9.60;;
12780;SDS011;6454;43.304;24.344;2024-01-06T00:08:06;19.85;;;10.52;;
12780;SDS011;6454;43.304;24.344;2024-01-06T00:10:31;19.27;;;10.13;;
12780;SDS011;6454;43.304;24.344;2024-01-06T00:12:57;17.20;;;10.50;;
12780;SDS011;6454;43.304;24.344;2024-01-06T00:15:23;20.45;;;10.63;;
12780;SDS011;6454;43.304;24.344;2024-01-06T00:17:48;18.08;;;10.10;;
12780;SDS011;6454;43.304;24.344;2024-01-06T00:20:14;17.10;;;9.52;;
12780;SDS011;6454;43.304;24.344;2024-01-06T00:22:39;14.68;;;9.82;;
12780;SDS011;6454;43.304;24.344;2024-01-06T00:25:07;17.33;;;10.13;;
12780;SDS011;6454;43.304;24.344;2024-01-06T00:27:33;16.42;;;10.98;;
12780;SDS011;6454;43.304;24.344;2024-01-06T00:29:58;19.58;;;10.90;;
12780;SDS011;6454;43.304;24.344;2024-01-06T00:32:24;17.08;;;9.50;;
12780;SDS011;6454;43.304;24.344;2024-01-06T00:34:49;13.63;;;8.65;;
12780;SDS011;6454;43.304;24.344;2024-01-06T00:37:15;13.48;;;7.43;;
12780;SDS011;6454;43.304;24.344;2024-01-06T00:39:40;13.25;;;6.85;;
12780;SDS011;6454;43.304;24.344;2024-01-06T00:42:06;13.02;;;7.65;;
12780;SDS011;6454;43.304;24.344;2024-01-06T00:44:32;15.30;;;8.27;;
12780;SDS011;6454;43.304;24.344;2024-01-06T00:46:59;18.00;;;8.55;;
12780;SDS011;6454;43.304;24.344;2024-01-06T00:49:24;19.67;;;9.27;;
12780;SDS011;6454;43.304;24.344;2024-01-06T00:51:50;15.88;;;9.90;;
12780;SDS011;6454;43.304;24.344;2024-01-06T00:54:15;14.00;;;8.73;;
12780;SDS011;6454;43.304;24.344;2024-01-06T00:56:41;17.40;;;9.35;;
12780;SDS011;6454;43.304;24.344;2024-01-06T00:59:07;12.50;;;8.35;;
12780;SDS011;6454;43.304;24.344;2024-01-06T01:01:33;15.55;;;8.50;;
12780;SDS011;6454;43.304;24.344;2024-01-06T01:03:58;11.48;;;7.55;;
12780;SDS011;6454;43.304;24.344;2024-01-06T01:06:24;11.02;;;7.13;;
12780;SDS011;6454;43.304;24.344;2024-01-06T01:08:49;11.65;;;7.43;;
12780;SDS011;6454;43.304;24.344;2024-01-06T01:11:15;12.55;;;7.70;;
12780;SDS011;6454;43.304;24.344;2024-01-06T01:13:40;10.77;;;6.68;;
12780;SDS011;6454;43.304;24.344;2024-01-06T01:16:06;12.63;;;7.20;;
12780;SDS011;6454;43.304;24.344;2024-01-06T01:18:31;10.18;;;6.35;;
12780;SDS011;6454;43.304;24.344;2024-01-06T01:20:57;13.75;;;7.55;;
12780;SDS011;6454;43.304;24.344;2024-01-06T01:23:22;13.48;;;7.63;;
12780;SDS011;6454;43.304;24.344;2024-01-06T01:25:48;12.93;;;7.22;;
12780;SDS011;6454;43.304;24.344;2024-01-06T01:28:14;12.80;;;6.38;;
12780;SDS011;6454;43.304;24.344;2024-01-06T01:30:39;11.20;;;6.53;;
12780;SDS011;6454;43.304;24.344;2024-01-06T01:33:05;13.43;;;7.55;;
12780;SDS011;6454;43.304;24.344;2024-01-06T01:35:30;13.75;;;6.97;;
12780;SDS011;6454;43.304;24.344;2024-01-06T01:37:56;9.13;;;5.80;;
12780;SDS011;6454;43.304;24.344;2024-01-06T01:40:21;11.48;;;6.28;;
12780;SDS011;6454;43.304;24.344;2024-01-06T01:42:46;12.35;;;6.60;;
12780;SDS011;6454;43.304;24.344;2024-01-06T01:45:12;12.15;;;6.93;;
12780;SDS011;6454;43.304;24.344;2024-01-06T01:47:37;10.07;;;6.32;;
12780;SDS011;6454;43.304;24.344;2024-01-06T01:50:04;9.80;;;5.43;;
12780;SDS011;6454;43.304;24.344;2024-01-06T01:52:30;9.25;;;5.75;;
12780;SDS011;6454;43.304;24.344;2024-01-06T01:54:57;9.27;;;5.43;;
12780;SDS011;6454;43.304;24.344;2024-01-06T01:57:23;9.77;;;6.28;;
12780;SDS011;6454;43.304;24.344;2024-01-06T01:59:50;13.45;;;7.05;;
12780;SDS011;6454;43.304;24.344;2024-01-06T02:02:18;15.73;;;7.13;;
12780;SDS011;6454;43.304;24.344;2024-01-06T02:04:44;13.98;;;7.32;;
12780;SDS011;6454;43.304;24.344;2024-01-06T02:07:10;8.48;;;5.43;;
12780;SDS011;6454;43.304;24.344;2024-01-06T02:09:36;9.60;;;5.72;;
12780;SDS011;6454;43.304;24.344;2024-01-06T02:12:01;9.35;;;5.25;;
12780;SDS011;6454;43.304;24.344;2024-01-06T02:14:27;9.05;;;5.72;;
12780;SDS011;6454;43.304;24.344;2024-01-06T02:16:53;9.55;;;4.90;;
12780;SDS011;6454;43.304;24.344;2024-01-06T02:19:18;7.20;;;4.93;;
12780;SDS011;6454;43.304;24.344;2024-01-06T02:21:48;8.32;;;5.20;;
12780;SDS011;6454;43.304;24.344;2024-01-06T02:24:14;7.20;;;4.93;;
12780;SDS011;6454;43.304;24.344;2024-01-06T02:26:40;9.50;;;4.90;;
12780;SDS011;6454;43.304;24.344;2024-01-06T02:29:05;8.43;;;5.00;;
12780;SDS011;6454;43.304;24.344;2024-01-06T02:31:31;7.93;;;4.43;;
12780;SDS011;6454;43.304;24.344;2024-01-06T02:33:56;7.18;;;4.53;;
12780;SDS011;6454;43.304;24.344;2024-01-06T02:36:21;8.88;;;4.30;;
12780;SDS011;6454;43.304;24.344;2024-01-06T02:38:47;6.80;;;4.28;;
12780;SDS011;6454;43.304;24.344;2024-01-06T02:41:12;5.88;;;3.92;;
12780;SDS011;6454;43.304;24.344;2024-01-06T02:43:38;7.75;;;4.32;;
12780;SDS011;6454;43.304;24.344;2024-01-06T02:46:03;4.38;;;3.25;;
12780;SDS011;6454;43.304;24.344;2024-01-06T02:48:28;7.40;;;3.90;;
12780;SDS011;6454;43.304;24.344;2024-01-06T02:50:55;8.85;;;5.70;;
12780;SDS011;6454;43.304;24.344;2024-01-06T02:53:21;7.25;;;4.95;;
12780;SDS011;6454;43.304;24.344;2024-01-06T02:55:47;7.13;;;4.03;;
12780;SDS011;6454;43.304;24.344;2024-01-06T02:58:12;6.55;;;3.50;;
12780;SDS011;6454;43.304;24.344;2024-01-06T03:00:38;5.85;;;3.60;;
12780;SDS011;6454;43.304;24.344;2024-01-06T03:03:03;6.68;;;3.67;;
12780;SDS011;6454;43.304;24.344;2024-01-06T03:05:32;5.82;;;3.63;;
12780;SDS011;6454;43.304;24.344;2024-01-06T03:07:58;6.30;;;3.75;;
12780;SDS011;6454;43.304;24.344;2024-01-06T03:10:23;6.95;;;3.60;;
12780;SDS011;6454;43.304;24.344;2024-01-06T03:12:49;5.55;;;3.55;;
12780;SDS011;6454;43.304;24.344;2024-01-06T03:15:14;5.03;;;3.25;;
12780;SDS011;6454;43.304;24.344;2024-01-06T03:17:40;4.97;;;3.15;;
12780;SDS011;6454;43.304;24.344;2024-01-06T03:20:05;4.72;;;3.65;;
12780;SDS011;6454;43.304;24.344;2024-01-06T03:22:32;4.78;;;2.80;;
12780;SDS011;6454;43.304;24.344;2024-01-06T03:24:57;4.72;;;3.28;;
12780;SDS011;6454;43.304;24.344;2024-01-06T03:27:23;5.63;;;3.05;;
12780;SDS011;6454;43.304;24.344;2024-01-06T03:29:48;4.75;;;3.10;;
12780;SDS011;6454;43.304;24.344;2024-01-06T03:32:14;4.15;;;2.75;;
12780;SDS011;6454;43.304;24.344;2024-01-06T03:34:40;5.85;;;3.13;;
12780;SDS011;6454;43.304;24.344;2024-01-06T03:37:06;3.47;;;2.47;;
12780;SDS011;6454;43.304;24.344;2024-01-06T03:39:31;3.38;;;2.63;;
12780;SDS011;6454;43.304;24.344;2024-01-06T03:41:57;4.13;;;3.25;;
12780;SDS011;6454;43.304;24.344;2024-01-06T03:44:22;5.05;;;3.13;;
12780;SDS011;6454;43.304;24.344;2024-01-06T03:46:48;4.20;;;2.55;;
12780;SDS011;6454;43.304;24.344;2024-01-06T03:49:13;4.72;;;2.47;;
12780;SDS011;6454;43.304;24.344;2024-01-06T03:51:38;4.38;;;2.53;;
12780;SDS011;6454;43.304;24.344;2024-01-06T03:54:04;5.60;;;2.38;;
12780;SDS011;6454;43.304;24.344;2024-01-06T03:56:29;5.22;;;2.88;;
12780;SDS011;6454;43.304;24.344;2024-01-06T03:58:55;4.80;;;2.55;;
12780;SDS011;6454;43.304;24.344;2024-01-06T04:01:20;2.65;;;2.25;;
12780;SDS011;6454;43.304;24.344;2024-01-06T04:03:46;2.55;;;2.00;;
12780;SDS011;6454;43.304;24.344;2024-01-06T04:06:11;4.20;;;2.80;;
12780;SDS011;6454;43.304;24.344;2024-01-06T04:08:38;2.83;;;2.17;;
12780;SDS011;6454;43.304;24.344;2024-01-06T04:11:04;3.13;;;1.98;;
12780;SDS011;6454;43.304;24.344;2024-01-06T04:13:30;3.53;;;2.40;;
12780;SDS011;6454;43.304;24.344;2024-01-06T04:15:55;3.55;;;2.30;;
12780;SDS011;6454;43.304;24.344;2024-01-06T04:18:20;5.18;;;2.08;;
12780;SDS011;6454;43.304;24.344;2024-01-06T04:20:46;2.80;;;1.52;;
12780;SDS011;6454;43.304;24.344;2024-01-06T04:23:11;2.67;;;1.90;;
12780;SDS011;6454;43.304;24.344;2024-01-06T04:25:37;3.53;;;2.05;;
12780;SDS011;6454;43.304;24.344;2024-01-06T04:28:02;2.28;;;2.10;;
12780;SDS011;6454;43.304;24.344;2024-01-06T04:30:28;5.60;;;2.13;;
12780;SDS011;6454;43.304;24.344;2024-01-06T04:32:53;3.13;;;1.95;;
12780;SDS011;6454;43.304;24.344;2024-01-06T04:35:19;3.65;;;2.10;;
12780;SDS011;6454;43.304;24.344;2024-01-06T04:37:45;2.72;;;1.90;;
12780;SDS011;6454;43.304;24.344;2024-01-06T04:40:11;2.78;;;2.00;;
12780;SDS011;6454;43.304;24.344;2024-01-06T04:42:36;2.58;;;1.80;;
12780;SDS011;6454;43.304;24.344;2024-01-06T04:45:02;4.20;;;2.40;;
12780;SDS011;6454;43.304;24.344;2024-01-06T04:47:28;4.13;;;1.90;;
12780;SDS011;6454;43.304;24.344;2024-01-06T04:49:55;4.40;;;2.00;;
12780;SDS011;6454;43.304;24.344;2024-01-06T04:52:21;3.63;;;1.60;;
12780;SDS011;6454;43.304;24.344;2024-01-06T04:54:46;3.33;;;2.42;;
12780;SDS011;6454;43.304;24.344;2024-01-06T04:57:12;3.17;;;1.90;;
12780;SDS011;6454;43.304;24.344;2024-01-06T04:59:37;2.15;;;1.83;;
12780;SDS011;6454;43.304;24.344;2024-01-06T05:02:02;3.00;;;2.22;;
12780;SDS011;6454;43.304;24.344;2024-01-06T05:04:29;6.60;;;3.50;;
12780;SDS011;6454;43.304;24.344;2024-01-06T05:06:57;7.28;;;4.15;;
12780;SDS011;6454;43.304;24.344;2024-01-06T05:09:22;6.28;;;3.78;;
12780;SDS011;6454;43.304;24.344;2024-01-06T05:11:48;5.93;;;3.50;;
12780;SDS011;6454;43.304;24.344;2024-01-06T05:14:13;8.77;;;4.18;;
12780;SDS011;6454;43.304;24.344;2024-01-06T05:16:39;5.28;;;3.25;;
12780;SDS011;6454;43.304;24.344;2024-01-06T05:19:04;3.92;;;2.80;;
12780;SDS011;6454;43.304;24.344;2024-01-06T05:21:29;3.70;;;2.30;;
12780;SDS011;6454;43.304;24.344;2024-01-06T05:23:55;2.50;;;1.90;;
12780;SDS011;6454;43.304;24.344;2024-01-06T05:26:21;4.22;;;2.30;;
12780;SDS011;6454;43.304;24.344;2024-01-06T05:28:46;2.65;;;1.90;;
12780;SDS011;6454;43.304;24.344;2024-01-06T05:31:12;6.70;;;3.15;;
12780;SDS011;6454;43.304;24.344;2024-01-06T05:33:37;4.18;;;2.30;;
12780;SDS011;6454;43.304;24.344;2024-01-06T05:36:03;4.03;;;2.60;;
12780;SDS011;6454;43.304;24.344;2024-01-06T05:38:28;4.57;;;2.88;;
12780;SDS011;6454;43.304;24.344;2024-01-06T05:40:54;5.32;;;2.90;;
12780;SDS011;6454;43.304;24.344;2024-01-06T05:43:19;5.70;;;2.55;;
12780;SDS011;6454;43.304;24.344;2024-01-06T05:45:45;7.53;;;2.65;;
12780;SDS011;6454;43.304;24.344;2024-01-06T05:48:10;3.47;;;2.63;;
12780;SDS011;6454;43.304;24.344;2024-01-06T05:50:39;4.00;;;2.53;;
12780;SDS011;6454;43.304;24.344;2024-01-06T05:53:06;8.23;;;3.10;;
12780;SDS011;6454;43.304;24.344;2024-01-06T05:55:31;7.47;;;4.00;;
12780;SDS011;6454;43.304;24.344;2024-01-06T05:57:57;3.60;;;2.70;;
12780;SDS011;6454;43.304;24.344;2024-01-06T06:00:22;4.47;;;2.25;;
12780;SDS011;6454;43.304;24.344;2024-01-06T06:02:48;4.68;;;2.63;;
12780;SDS011;6454;43.304;24.344;2024-01-06T06:05:13;3.33;;;2.45;;
12780;SDS011;6454;43.304;24.344;2024-01-06T06:07:39;2.20;;;2.00;;
12780;SDS011;6454;43.304;24.344;2024-01-06T06:10:08;16.70;;;6.20;;
12780;SDS011;6454;43.304;24.344;2024-01-06T06:12:36;8.95;;;3.70;;
12780;SDS011;6454;43.304;24.344;2024-01-06T06:15:02;4.07;;;2.60;;
12780;SDS011;6454;43.304;24.344;2024-01-06T06:17:29;3.60;;;2.35;;
12780;SDS011;6454;43.304;24.344;2024-01-06T06:19:56;4.53;;;2.20;;
12780;SDS011;6454;43.304;24.344;2024-01-06T06:22:22;4.68;;;2.67;;
12780;SDS011;6454;43.304;24.344;2024-01-06T06:24:48;4.50;;;2.83;;
12780;SDS011;6454;43.304;24.344;2024-01-06T06:27:13;7.47;;;3.53;;
12780;SDS011;6454;43.304;24.344;2024-01-06T06:29:38;55.95;;;17.75;;
12780;SDS011;6454;43.304;24.344;2024-01-06T06:32:04;34.63;;;10.32;;
12780;SDS011;6454;43.304;24.344;2024-01-06T06:34:30;5.35;;;3.03;;
12780;SDS011;6454;43.304;24.344;2024-01-06T06:36:55;4.47;;;2.20;;
12780;SDS011;6454;43.304;24.344;2024-01-06T06:39:20;2.72;;;2.15;;
12780;SDS011;6454;43.304;24.344;2024-01-06T06:41:46;5.25;;;2.38;;
12780;SDS011;6454;43.304;24.344;2024-01-06T06:44:11;5.93;;;3.35;;
12780;SDS011;6454;43.304;24.344;2024-01-06T06:46:37;7.20;;;3.97;;
12780;SDS011;6454;43.304;24.344;2024-01-06T06:49:02;16.55;;;7.85;;
12780;SDS011;6454;43.304;24.344;2024-01-06T06:51:28;16.70;;;8.43;;
12780;SDS011;6454;43.304;24.344;2024-01-06T06:53:55;17.10;;;7.90;;
12780;SDS011;6454;43.304;24.344;2024-01-06T06:56:21;13.15;;;6.30;;
12780;SDS011;6454;43.304;24.344;2024-01-06T06:58:47;8.32;;;4.50;;
12780;SDS011;6454;43.304;24.344;2024-01-06T07:01:16;7.43;;;3.50;;
12780;SDS011;6454;43.304;24.344;2024-01-06T07:03:42;6.25;;;3.22;;
12780;SDS011;6454;43.304;24.344;2024-01-06T07:06:07;6.55;;;3.75;;
12780;SDS011;6454;43.304;24.344;2024-01-06T07:08:33;8.88;;;4.57;;
12780;SDS011;6454;43.304;24.344;2024-01-06T07:10:58;10.13;;;4.50;;
12780;SDS011;6454;43.304;24.344;2024-01-06T07:13:24;5.90;;;3.90;;
12780;SDS011;6454;43.304;24.344;2024-01-06T07:15:51;9.85;;;4.85;;
12780;SDS011;6454;43.304;24.344;2024-01-06T07:18:16;8.10;;;3.97;;
12780;SDS011;6454;43.304;24.344;2024-01-06T07:20:44;6.25;;;3.33;;
12780;SDS011;6454;43.304;24.344;2024-01-06T07:23:09;7.60;;;3.80;;
12780;SDS011;6454;43.304;24.344;2024-01-06T07:25:35;6.75;;;3.45;;
12780;SDS011;6454;43.304;24.344;2024-01-06T07:28:00;8.43;;;3.90;;
12780;SDS011;6454;43.304;24.344;2024-01-06T07:30:26;5.35;;;3.55;;
12780;SDS011;6454;43.304;24.344;2024-01-06T07:32:51;5.43;;;3.25;;
12780;SDS011;6454;43.304;24.344;2024-01-06T07:35:17;6.30;;;3.03;;
12780;SDS011;6454;43.304;24.344;2024-01-06T07:37:42;4.85;;;2.75;;
12780;SDS011;6454;43.304;24.344;2024-01-06T07:40:08;6.72;;;3.97;;
12780;SDS011;6454;43.304;24.344;2024-01-06T07:42:34;6.57;;;3.97;;
12780;SDS011;6454;43.304;24.344;2024-01-06T07:44:59;7.43;;;3.92;;
12780;SDS011;6454;43.304;24.344;2024-01-06T07:47:25;9.07;;;4.07;;
12780;SDS011;6454;43.304;24.344;2024-01-06T07:49:50;5.88;;;3.33;;
12780;SDS011;6454;43.304;24.344;2024-01-06T07:52:18;10.68;;;3.08;;
12780;SDS011;6454;43.304;24.344;2024-01-06T07:54:43;3.42;;;2.47;;
12780;SDS011;6454;43.304;24.344;2024-01-06T07:57:08;3.88;;;2.38;;
12780;SDS011;6454;43.304;24.344;2024-01-06T07:59:36;5.15;;;2.40;;
12780;SDS011;6454;43.304;24.344;2024-01-06T08:02:01;2.83;;;1.83;;
12780;SDS011;6454;43.304;24.344;2024-01-06T08:04:27;4.45;;;1.90;;
12780;SDS011;6454;43.304;24.344;2024-01-06T08:06:52;5.93;;;2.30;;
12780;SDS011;6454;43.304;24.344;2024-01-06T08:09:18;4.85;;;2.15;;
12780;SDS011;6454;43.304;24.344;2024-01-06T08:11:43;7.88;;;3.75;;
12780;SDS011;6454;43.304;24.344;2024-01-06T08:14:10;10.55;;;5.40;;
12780;SDS011;6454;43.304;24.344;2024-01-06T08:16:36;6.97;;;3.30;;
12780;SDS011;6454;43.304;24.344;2024-01-06T08:19:01;3.80;;;2.70;;
12780;SDS011;6454;43.304;24.344;2024-01-06T08:21:27;3.28;;;2.40;;
12780;SDS011;6454;43.304;24.344;2024-01-06T08:23:53;4.90;;;2.92;;
12780;SDS011;6454;43.304;24.344;2024-01-06T08:26:18;4.85;;;2.97;;
12780;SDS011;6454;43.304;24.344;2024-01-06T08:28:43;4.70;;;2.80;;
12780;SDS011;6454;43.304;24.344;2024-01-06T08:31:09;5.43;;;2.95;;
12780;SDS011;6454;43.304;24.344;2024-01-06T08:33:34;5.20;;;3.55;;
12780;SDS011;6454;43.304;24.344;2024-01-06T08:36:00;6.43;;;3.22;;
12780;SDS011;6454;43.304;24.344;2024-01-06T08:38:25;4.90;;;2.88;;
12780;SDS011;6454;43.304;24.344;2024-01-06T08:40:51;4.43;;;2.63;;
12780;SDS011;6454;43.304;24.344;2024-01-06T08:43:18;2.75;;;1.92;;
12780;SDS011;6454;43.304;24.344;2024-01-06T08:45:44;2.90;;;2.20;;
12780;SDS011;6454;43.304;24.344;2024-01-06T08:48:09;2.47;;;2.08;;
12780;SDS011;6454;43.304;24.344;2024-01-06T08:50:38;4.18;;;3.05;;
12780;SDS011;6454;43.304;24.344;2024-01-06T08:53:03;4.65;;;2.67;;
12780;SDS011;6454;43.304;24.344;2024-01-06T08:55:30;5.47;;;3.20;;
12780;SDS011;6454;43.304;24.344;2024-01-06T08:57:55;3.80;;;2.97;;
12780;SDS011;6454;43.304;24.344;2024-01-06T09:00:20;8.27;;;4.90;;
12780;SDS011;6454;43.304;24.344;2024-01-06T09:02:46;9.45;;;4.25;;
12780;SDS011;6454;43.304;24.344;2024-01-06T09:05:11;5.28;;;3.28;;
12780;SDS011;6454;43.304;24.344;2024-01-06T09:07:37;8.38;;;5.28;;
12780;SDS011;6454;43.304;24.344;2024-01-06T09:10:02;11.02;;;6.50;;
12780;SDS011;6454;43.304;24.344;2024-01-06T09:12:28;15.20;;;7.68;;
12780;SDS011;6454;43.304;24.344;2024-01-06T09:14:54;9.95;;;7.40;;
12780;SDS011;6454;43.304;24.344;2024-01-06T09:17:20;16.90;;;9.73;;
12780;SDS011;6454;43.304;24.344;2024-01-06T09:19:47;14.35;;;9.88;;
12780;SDS011;6454;43.304;24.344;2024-01-06T09:22:13;11.63;;;8.05;;
12780;SDS011;6454;43.304;24.344;2024-01-06T09:24:40;7.32;;;4.47;;
12780;SDS011;6454;43.304;24.344;2024-01-06T09:27:05;3.70;;;2.63;;
12780;SDS011;6454;43.304;24.344;2024-01-06T09:29:30;3.45;;;2.42;;
12780;SDS011;6454;43.304;24.344;2024-01-06T09:31:56;3.45;;;2.95;;
12780;SDS011;6454;43.304;24.344;2024-01-06T09:34:21;6.68;;;3.83;;
12780;SDS011;6454;43.304;24.344;2024-01-06T09:36:47;6.72;;;4.78;;
12780;SDS011;6454;43.304;24.344;2024-01-06T09:39:12;6.45;;;4.32;;
12780;SDS011;6454;43.304;24.344;2024-01-06T09:41:38;6.20;;;3.75;;
12780;SDS011;6454;43.304;24.344;2024-01-06T09:44:03;4.15;;;3.33;;
12780;SDS011;6454;43.304;24.344;2024-01-06T09:46:29;4.78;;;3.50;;
12780;SDS011;6454;43.304;24.344;2024-01-06T09:48:55;11.15;;;6.68;;
12780;SDS011;6454;43.304;24.344;2024-01-06T09:51:22;23.95;;;12.95;;
12780;SDS011;6454;43.304;24.344;2024-01-06T09:56:25;25.00;;;15.23;;
12780;SDS011;6454;43.304;24.344;2024-01-06T09:58:51;36.30;;;18.08;;
12780;SDS011;6454;43.304;24.344;2024-01-06T10:01:20;22.67;;;11.20;;
12780;SDS011;6454;43.304;24.344;2024-01-06T10:03:46;8.98;;;5.22;;
12780;SDS011;6454;43.304;24.344;2024-01-06T10:06:15;6.75;;;3.10;;
12780;SDS011;6454;43.304;24.344;2024-01-06T10:08:47;5.65;;;2.55;;
12780;SDS011;6454;43.304;24.344;2024-01-06T10:11:14;6.63;;;2.40;;
12780;SDS011;6454;43.304;24.344;2024-01-06T10:13:40;4.78;;;2.38;;
12780;SDS011;6454;43.304;24.344;2024-01-06T10:16:05;6.13;;;3.53;;
12780;SDS011;6454;43.304;24.344;2024-01-06T10:18:32;17.30;;;9.90;;
12780;SDS011;6454;43.304;24.344;2024-01-06T10:20:58;24.90;;;15.27;;
12780;SDS011;6454;43.304;24.344;2024-01-06T10:23:24;21.77;;;14.10;;
12780;SDS011;6454;43.304;24.344;2024-01-06T10:25:55;21.15;;;12.70;;
12780;SDS011;6454;43.304;24.344;2024-01-06T10:28:21;24.48;;;14.68;;
12780;SDS011;6454;43.304;24.344;2024-01-06T10:30:48;31.83;;;17.80;;
12780;SDS011;6454;43.304;24.344;2024-01-06T10:33:14;57.40;;;27.77;;
12780;SDS011;6454;43.304;24.344;2024-01-06T10:35:40;59.58;;;28.92;;
12780;SDS011;6454;43.304;24.344;2024-01-06T10:38:06;45.88;;;25.83;;
12780;SDS011;6454;43.304;24.344;2024-01-06T10:40:32;86.43;;;39.28;;
12780;SDS011;6454;43.304;24.344;2024-01-06T10:42:58;132.23;;;53.20;;
12780;SDS011;6454;43.304;24.344;2024-01-06T10:45:25;103.63;;;41.75;;
12780;SDS011;6454;43.304;24.344;2024-01-06T10:47:53;97.90;;;39.78;;
12780;SDS011;6454;43.304;24.344;2024-01-06T10:50:20;48.38;;;24.02;;
12780;SDS011;6454;43.304;24.344;2024-01-06T10:52:47;48.17;;;25.38;;
12780;SDS011;6454;43.304;24.344;2024-01-06T10:55:13;41.05;;;20.75;;
12780;SDS011;6454;43.304;24.344;2024-01-06T10:57:43;46.20;;;24.65;;
12780;SDS011;6454;43.304;24.344;2024-01-06T11:00:08;36.85;;;19.92;;
12780;SDS011;6454;43.304;24.344;2024-01-06T11:02:35;27.02;;;13.88;;
12780;SDS011;6454;43.304;24.344;2024-01-06T11:05:00;25.95;;;12.75;;
12780;SDS011;6454;43.304;24.344;2024-01-06T11:07:26;26.92;;;13.52;;
12780;SDS011;6454;43.304;24.344;2024-01-06T11:12:30;22.67;;;11.93;;
12780;SDS011;6454;43.304;24.344;2024-01-06T11:14:56;17.77;;;9.30;;
12780;SDS011;6454;43.304;24.344;2024-01-06T11:20:21;23.30;;;11.32;;
12780;SDS011;6454;43.304;24.344;2024-01-06T11:22:48;23.90;;;12.27;;
12780;SDS011;6454;43.304;24.344;2024-01-06T11:25:14;19.20;;;10.98;;
12780;SDS011;6454;43.304;24.344;2024-01-06T11:27:42;22.58;;;11.07;;
12780;SDS011;6454;43.304;24.344;2024-01-06T11:30:18;19.45;;;9.80;;
12780;SDS011;6454;43.304;24.344;2024-01-06T11:32:45;17.83;;;9.98;;
12780;SDS011;6454;43.304;24.344;2024-01-06T11:35:12;13.57;;;9.00;;
12780;SDS011;6454;43.304;24.344;2024-01-06T11:40:47;21.48;;;13.27;;
12780;SDS011;6454;43.304;24.344;2024-01-06T11:45:33;40.95;;;21.35;;
12780;SDS011;6454;43.304;24.344;2024-01-06T11:48:03;51.05;;;26.88;;
12780;SDS011;6454;43.304;24.344;2024-01-06T11:50:33;60.28;;;28.92;;
12780;SDS011;6454;43.304;24.344;2024-01-06T11:53:00;56.85;;;29.45;;
12780;SDS011;6454;43.304;24.344;2024-01-06T11:55:26;52.80;;;30.10;;
12780;SDS011;6454;43.304;24.344;2024-01-06T11:57:57;52.08;;;29.75;;
12780;SDS011;6454;43.304;24.344;2024-01-06T12:00:26;61.75;;;30.27;;
12780;SDS011;6454;43.304;24.344;2024-01-06T12:02:55;93.70;;;41.08;;
12780;SDS011;6454;43.304;24.344;2024-01-06T12:05:24;91.78;;;41.33;;
12780;SDS011;6454;43.304;24.344;2024-01-06T12:08:01;86.00;;;37.78;;
12780;SDS011;6454;43.304;24.344;2024-01-06T12:10:31;58.90;;;27.95;;
12780;SDS011;6454;43.304;24.344;2024-01-06T12:13:01;74.10;;;38.65;;
12780;SDS011;6454;43.304;24.344;2024-01-06T12:15:28;48.03;;;24.80;;
12780;SDS011;6454;43.304;24.344;2024-01-06T12:17:55;48.42;;;24.58;;
12780;SDS011;6454;43.304;24.344;2024-01-06T12:20:21;53.38;;;23.30;;
12780;SDS011;6454;43.304;24.344;2024-01-06T12:22:49;32.25;;;15.32;;
12780;SDS011;6454;43.304;24.344;2024-01-06T12:25:16;26.98;;;13.18;;
12780;SDS011;6454;43.304;24.344;2024-01-06T12:27:42;26.45;;;11.68;;
12780;SDS011;6454;43.304;24.344;2024-01-06T12:30:12;34.50;;;15.50;;
12780;SDS011;6454;43.304;24.344;2024-01-06T12:32:44;18.30;;;9.52;;
12780;SDS011;6454;43.304;24.344;2024-01-06T12:35:10;15.82;;;9.77;;
12780;SDS011;6454;43.304;24.344;2024-01-06T12:37:37;15.98;;;9.65;;
12780;SDS011;6454;43.304;24.344;2024-01-06T12:40:02;15.63;;;10.23;;
12780;SDS011;6454;43.304;24.344;2024-01-06T12:42:28;16.60;;;10.85;;
12780;SDS011;6454;43.304;24.344;2024-01-06T12:44:54;14.50;;;10.18;;
12780;SDS011;6454;43.304;24.344;2024-01-06T12:47:19;17.42;;;10.55;;
12780;SDS011;6454;43.304;24.344;2024-01-06T12:49:45;12.40;;;8.13;;
12780;SDS011;6454;43.304;24.344;2024-01-06T12:52:11;11.85;;;8.48;;
12780;SDS011;6454;43.304;24.344;2024-01-06T12:54:37;11.35;;;8.10;;
12780;SDS011;6454;43.304;24.344;2024-01-06T12:57:02;12.00;;;7.82;;
12780;SDS011;6454;43.304;24.344;2024-01-06T12:59:28;12.27;;;7.82;;
12780;SDS011;6454;43.304;24.344;2024-01-06T13:01:55;8.15;;;6.30;;
12780;SDS011;6454;43.304;24.344;2024-01-06T13:04:21;11.15;;;7.25;;
12780;SDS011;6454;43.304;24.344;2024-01-06T13:06:46;13.75;;;8.75;;
12780;SDS011;6454;43.304;24.344;2024-01-06T13:09:14;12.55;;;8.13;;
12780;SDS011;6454;43.304;24.344;2024-01-06T13:11:41;19.42;;;10.70;;
12780;SDS011;6454;43.304;24.344;2024-01-06T13:14:07;16.63;;;11.02;;
12780;SDS011;6454;43.304;24.344;2024-01-06T13:16:32;17.35;;;9.63;;
12780;SDS011;6454;43.304;24.344;2024-01-06T13:18:58;15.93;;;9.93;;
12780;SDS011;6454;43.304;24.344;2024-01-06T13:21:24;14.75;;;9.00;;
12780;SDS011;6454;43.304;24.344;2024-01-06T13:23:49;14.50;;;10.05;;
12780;SDS011;6454;43.304;24.344;2024-01-06T13:26:15;24.80;;;13.57;;
12780;SDS011;6454;43.304;24.344;2024-01-06T13:28:40;21.55;;;12.77;;
12780;SDS011;6454;43.304;24.344;2024-01-06T13:31:06;24.10;;;13.90;;
12780;SDS011;6454;43.304;24.344;2024-01-06T13:33:32;26.65;;;15.73;;
12780;SDS011;6454;43.304;24.344;2024-01-06T13:35:57;36.17;;;20.45;;
12780;SDS011;6454;43.304;24.344;2024-01-06T13:38:23;45.45;;;23.95;;
12780;SDS011;6454;43.304;24.344;2024-01-06T13:40:51;41.63;;;23.58;;
12780;SDS011;6454;43.304;24.344;2024-01-06T13:43:17;32.38;;;18.63;;
12780;SDS011;6454;43.304;24.344;2024-01-06T13:45:43;27.60;;;15.57;;
12780;SDS011;6454;43.304;24.344;2024-01-06T13:48:12;30.23;;;17.23;;
12780;SDS011;6454;43.304;24.344;2024-01-06T13:50:38;34.15;;;17.42;;
12780;SDS011;6454;43.304;24.344;2024-01-06T13:53:04;30.48;;;17.48;;
12780;SDS011;6454;43.304;24.344;2024-01-06T13:55:31;37.00;;;17.75;;
12780;SDS011;6454;43.304;24.344;2024-01-06T13:57:58;31.98;;;17.40;;
12780;SDS011;6454;43.304;24.344;2024-01-06T14:00:24;32.47;;;16.70;;
12780;SDS011;6454;43.304;24.344;2024-01-06T14:02:51;34.70;;;17.25;;
12780;SDS011;6454;43.304;24.344;2024-01-06T14:05:16;27.77;;;14.70;;
12780;SDS011;6454;43.304;24.344;2024-01-06T14:07:44;27.48;;;14.38;;
12780;SDS011;6454;43.304;24.344;2024-01-06T14:10:12;24.00;;;13.40;;
12780;SDS011;6454;43.304;24.344;2024-01-06T14:12:40;26.02;;;13.80;;
12780;SDS011;6454;43.304;24.344;2024-01-06T14:15:06;24.63;;;13.50;;
12780;SDS011;6454;43.304;24.344;2024-01-06T14:17:32;22.40;;;13.43;;
12780;SDS011;6454;43.304;24.344;2024-01-06T14:19:58;21.90;;;13.05;;
12780;SDS011;6454;43.304;24.344;2024-01-06T14:22:23;33.50;;;20.10;;
12780;SDS011;6454;43.304;24.344;2024-01-06T14:24:49;36.67;;;19.30;;
12780;SDS011;6454;43.304;24.344;2024-01-06T14:27:15;35.90;;;18.13;;
12780;SDS011;6454;43.304;24.344;2024-01-06T14:29:41;35.85;;;17.83;;
12780;SDS011;6454;43.304;24.344;2024-01-06T14:32:06;33.25;;;17.17;;
12780;SDS011;6454;43.304;24.344;2024-01-06T14:34:32;32.78;;;18.35;;
12780;SDS011;6454;43.304;24.344;2024-01-06T14:36:58;35.95;;;18.80;;
12780;SDS011;6454;43.304;24.344;2024-01-06T14:39:23;51.85;;;27.58;;
12780;SDS011;6454;43.304;24.344;2024-01-06T14:41:49;87.28;;;36.85;;
12780;SDS011;6454;43.304;24.344;2024-01-06T14:44:15;91.82;;;42.10;;